Time;durP1;ratioP1;P1;durP2;ratioP2;P2;SDS_P1;SDS_P2;PMS_P1;PMS_P2;Temp;Humidity;BMP_temperature;BMP_pressure;BME280_temperature;BME280_humidity;BME280_pressure;Samples;Min_cycle;Max_cycle;Signal;HPM_P1;HPM_P2
2023/06/11 00:02:33;;;;;;;11.77;6.32;;;20.40;99.90;;;;;;4859236;29;20060;-85
2023/06/11 00:05:27;;;;;;;22.67;16.25;;;20.40;99.90;;;;;;5271024;23;20058;-85
2023/06/11 00:11:15;;;;;;;23.63;16.13;;;20.50;99.90;;;;;;4919946;23;20049;-77
2023/06/11 00:18:05;;;;;;;10.65;6.30;;;20.40;99.90;;;;;;4852907;29;20040;-87
2023/06/11 00:21:25;;;;;;;10.95;6.68;;;20.40;99.90;;;;;;4886332;29;20133;-76
2023/06/11 00:32:46;;;;;;;9.48;6.60;;;20.20;99.90;;;;;;4868341;29;20045;-76
2023/06/11 00:35:55;;;;;;;12.85;6.93;;;20.20;99.90;;;;;;4870504;29;20549;-77
2023/06/11 00:38:56;;;;;;;12.43;6.20;;;19.90;99.90;;;;;;4855080;29;20053;-78
2023/06/11 00:41:26;;;;;;;9.30;6.65;;;19.40;99.90;;;;;;4876666;29;20042;-84
2023/06/11 00:44:06;;;;;;;13.70;7.23;;;19.40;99.90;;;;;;4878166;29;20061;-76
2023/06/11 00:47:21;;;;;;;12.25;6.38;;;19.70;99.90;;;;;;4860488;29;20375;-76
2023/06/11 00:50:28;;;;;;;12.25;6.63;;;19.90;99.90;;;;;;4876161;24;20069;-76
2023/06/11 00:53:17;;;;;;;10.50;6.63;;;19.90;99.90;;;;;;4836085;29;20072;-80
2023/06/11 00:55:45;;;;;;;8.75;5.78;;;19.90;99.90;;;;;;4872393;29;20049;-82
2023/06/11 00:58:15;;;;;;;10.63;6.25;;;19.90;99.90;;;;;;4875335;29;20029;-81
2023/06/11 01:00:50;;;;;;;10.68;6.70;;;19.90;99.90;;;;;;4870792;29;20120;-84
2023/06/11 01:03:22;;;;;;;9.57;6.65;;;20.00;99.90;;;;;;4888031;29;20478;-83
2023/06/11 01:06:01;;;;;;;9.57;6.07;;;20.00;99.90;;;;;;4869968;29;20069;-85
2023/06/11 01:09:01;;;;;;;9.55;6.30;;;20.10;99.90;;;;;;4863326;24;20053;-76
2023/06/11 01:11:58;;;;;;;9.63;6.38;;;20.10;99.90;;;;;;4859738;29;20056;-81
2023/06/11 01:14:26;;;;;;;9.23;6.57;;;20.00;99.90;;;;;;4847016;29;20041;-82
2023/06/11 01:17:25;;;;;;;13.23;6.80;;;20.00;99.90;;;;;;4859757;29;20101;-77
2023/06/11 01:20:09;;;;;;;10.45;6.22;;;19.90;99.90;;;;;;4852022;29;20049;-86
2023/06/11 01:22:51;;;;;;;10.98;6.57;;;19.90;99.90;;;;;;4870905;29;20057;-82
2023/06/11 01:25:57;;;;;;;10.75;6.70;;;20.00;99.90;;;;;;4867419;29;20074;-80
2023/06/11 01:28:31;;;;;;;11.93;6.68;;;19.90;99.90;;;;;;4869184;29;20494;-83
2023/06/11 01:31:03;;;;;;;10.48;6.35;;;19.80;99.90;;;;;;4889644;29;20044;-85
2023/06/11 01:33:35;;;;;;;10.45;6.82;;;19.70;99.90;;;;;;4886957;29;20072;-83
2023/06/11 01:39:09;;;;;;;11.55;6.65;;;19.70;99.90;;;;;;4424861;27;20049;-78
2023/06/11 01:42:25;;;;;;;11.63;6.78;;;19.70;99.90;;;;;;4861883;29;20056;-77
2023/06/11 01:44:53;;;;;;;10.95;6.47;;;19.70;99.90;;;;;;4912246;29;20486;-84
2023/06/11 01:47:21;;;;;;;10.40;6.85;;;19.80;99.90;;;;;;4871339;29;20491;-84
2023/06/11 01:50:00;;;;;;;9.38;6.80;;;19.70;99.90;;;;;;4881613;29;20046;-75
2023/06/11 01:52:55;;;;;;;13.30;7.07;;;19.70;99.90;;;;;;4884772;29;20033;-86
2023/06/11 01:55:22;;;;;;;11.93;7.00;;;19.60;99.90;;;;;;4883596;29;20133;-81
2023/06/11 01:57:59;;;;;;;10.00;7.10;;;19.50;99.90;;;;;;4889075;29;20085;-76
2023/06/11 02:00:53;;;;;;;12.57;7.28;;;19.40;99.90;;;;;;4874133;29;20046;-79
2023/06/11 02:03:44;;;;;;;8.93;6.78;;;19.40;99.90;;;;;;4859245;29;20061;-83
2023/06/11 02:06:13;;;;;;;10.27;6.80;;;19.50;99.90;;;;;;4870790;29;20041;-85
2023/06/11 02:08:41;;;;;;;11.57;7.35;;;19.40;99.90;;;;;;4860422;29;20050;-83
2023/06/11 02:11:20;;;;;;;12.55;7.10;;;19.20;99.90;;;;;;4867036;29;20081;-75
2023/06/11 02:14:13;;;;;;;11.32;7.03;;;19.20;99.90;;;;;;4867395;29;20125;-76
2023/06/11 02:16:56;;;;;;;12.15;7.00;;;19.30;99.90;;;;;;4835617;29;20057;-88
2023/06/11 02:19:26;;;;;;;14.40;7.38;;;19.20;99.90;;;;;;4865447;29;20041;-81
2023/06/11 02:22:35;;;;;;;11.25;7.80;;;19.20;99.90;;;;;;4870400;29;20045;-79
2023/06/11 02:25:25;;;;;;;;;;;19.10;99.90;;;;;;4866210;29;20053;-81
2023/06/11 02:28:04;;;;;;;11.40;7.35;;;19.00;99.90;;;;;;4868921;29;19927;-76
2023/06/11 02:30:43;;;;;;;11.05;8.05;;;19.00;99.90;;;;;;4854816;29;20083;-84
2023/06/11 02:33:11;;;;;;;9.50;7.80;;;19.00;99.90;;;;;;4870439;29;20612;-82
2023/06/11 02:36:01;;;;;;;12.02;7.75;;;19.00;99.90;;;;;;4872495;29;20041;-78
2023/06/11 02:39:31;;;;;;;9.65;7.28;;;19.10;99.90;;;;;;4823132;29;20050;-82
2023/06/11 02:42:18;;;;;;;11.30;7.50;;;19.10;99.90;;;;;;4830082;29;20074;-78
2023/06/11 02:44:46;;;;;;;12.20;7.65;;;19.20;99.90;;;;;;4849524;29;20049;-79
2023/06/11 02:47:13;;;;;;;10.63;7.68;;;19.10;99.90;;;;;;4826626;29;20046;-82
2023/06/11 02:49:42;;;;;;;11.57;8.60;;;19.00;99.90;;;;;;4802229;29;20149;-81
2023/06/11 02:52:09;;;;;;;14.23;8.68;;;19.00;99.90;;;;;;4836213;29;20054;-86
2023/06/11 02:54:51;;;;;;;14.85;8.40;;;19.10;99.90;;;;;;4815354;29;20080;-78
2023/06/11 02:57:43;;;;;;;11.50;7.32;;;19.10;99.90;;;;;;4817684;29;20133;-86
2023/06/11 03:00:12;;;;;;;14.73;8.25;;;19.00;99.90;;;;;;4849489;29;20057;-82
2023/06/11 03:02:39;;;;;;;13.55;7.72;;;19.20;99.90;;;;;;4831042;29;20126;-76
2023/06/11 03:05:20;;;;;;;14.45;7.80;;;19.30;99.90;;;;;;4833015;29;20054;-79
2023/06/11 03:08:53;;;;;;;13.50;7.60;;;19.30;99.90;;;;;;4806773;29;20053;-75
2023/06/11 03:11:45;;;;;;;11.43;7.47;;;19.40;99.90;;;;;;4846098;24;20093;-82
2023/06/11 03:14:12;;;;;;;13.20;7.10;;;18.70;99.90;;;;;;4861268;29;20100;-81
2023/06/11 03:16:40;;;;;;;11.00;7.47;;;18.80;99.90;;;;;;4847811;29;20046;-80
2023/06/11 03:19:07;;;;;;;12.60;7.90;;;18.90;99.90;;;;;;4853284;29;20045;-79
2023/06/11 03:21:35;;;;;;;15.05;8.38;;;18.80;99.90;;;;;;4862287;29;20113;-79
2023/06/11 03:24:02;;;;;;;12.77;7.53;;;18.90;99.90;;;;;;4846194;29;20101;-80
2023/06/11 03:26:30;;;;;;;12.60;7.40;;;18.90;99.90;;;;;;4845249;29;20046;-77
2023/06/11 03:28:57;;;;;;;12.77;8.07;;;19.00;99.90;;;;;;4865679;29;20061;-78
2023/06/11 03:31:25;;;;;;;12.43;8.27;;;19.10;99.90;;;;;;4848538;29;20049;-82
2023/06/11 03:34:05;;;;;;;11.32;8.40;;;19.20;99.90;;;;;;4838150;29;20060;-75
2023/06/11 03:37:11;;;;;;;11.97;7.73;;;19.20;99.90;;;;;;4822743;29;21008;-80
2023/06/11 03:39:53;;;;;;;12.95;7.38;;;19.00;99.90;;;;;;4832610;29;20786;-80
2023/06/11 03:42:29;;;;;;;10.32;7.28;;;19.00;99.90;;;;;;5027116;24;20052;-76
2023/06/11 03:45:34;;;;;;;12.35;7.45;;;19.10;99.90;;;;;;4823400;29;20132;-80
2023/06/11 03:48:49;;;;;;;13.00;7.35;;;18.90;99.90;;;;;;4830869;29;20049;-77
2023/06/11 03:51:32;;;;;;;12.48;7.25;;;18.80;99.90;;;;;;4824141;29;20065;-79
2023/06/11 03:53:59;;;;;;;11.52;7.47;;;18.90;99.90;;;;;;4832518;29;20063;-78
2023/06/11 03:56:50;;;;;;;12.90;8.15;;;19.10;99.90;;;;;;4843621;29;20085;-78
2023/06/11 03:59:18;;;;;;;14.40;8.52;;;19.20;99.90;;;;;;4870513;23;20049;-84
2023/06/11 04:02:06;;;;;;;17.63;7.43;;;19.20;99.90;;;;;;4845555;29;20050;-74
2023/06/11 04:04:58;;;;;;;12.37;7.33;;;19.20;99.90;;;;;;4852907;24;20084;-78
2023/06/11 04:07:39;;;;;;;10.88;7.80;;;19.20;99.90;;;;;;4842628;29;20056;-79
2023/06/11 04:10:13;;;;;;;9.38;6.93;;;19.30;99.90;;;;;;4880503;29;20045;-79
2023/06/11 04:12:43;;;;;;;13.27;7.15;;;19.20;99.90;;;;;;4853452;29;20056;-78
2023/06/11 04:18:09;;;;;;;15.48;7.97;;;19.10;99.90;;;;;;5038144;23;20053;-76
2023/06/11 04:20:49;;;;;;;10.07;7.70;;;19.20;99.90;;;;;;4847194;29;20057;-84
2023/06/11 04:23:16;;;;;;;12.35;7.78;;;19.20;99.90;;;;;;4851118;29;20045;-77
2023/06/11 04:25:48;;;;;;;13.77;8.07;;;19.30;99.90;;;;;;4874083;29;20041;-77
2023/06/11 04:28:17;;;;;;;12.88;7.88;;;19.40;99.90;;;;;;4868012;29;20479;-74
2023/06/11 04:30:45;;;;;;;15.88;8.52;;;19.30;99.90;;;;;;4849128;29;20132;-78
2023/06/11 04:33:12;;;;;;;11.38;7.90;;;19.60;99.90;;;;;;4844641;29;20098;-77
2023/06/11 04:35:48;;;;;;;15.20;8.55;;;19.50;99.90;;;;;;4865004;29;20128;-76
2023/06/11 04:38:34;;;;;;;13.45;7.93;;;19.50;99.90;;;;;;4841318;29;20080;-75
2023/06/11 04:41:14;;;;;;;13.73;7.95;;;19.50;99.90;;;;;;4865057;29;20047;-78
2023/06/11 04:43:46;;;;;;;11.98;8.07;;;19.50;99.90;;;;;;4843528;29;20120;-76
2023/06/11 04:46:35;;;;;;;11.98;7.43;;;19.70;99.90;;;;;;4916339;23;20051;-79
2023/06/11 04:49:22;;;;;;;14.07;7.90;;;19.50;99.90;;;;;;4831826;29;20069;-80
2023/06/11 04:51:52;;;;;;;11.23;7.43;;;19.70;99.90;;;;;;4843404;29;20046;-79
2023/06/11 04:54:21;;;;;;;14.27;7.93;;;19.80;99.90;;;;;;4845682;29;20074;-79
2023/06/11 04:56:49;;;;;;;15.88;7.85;;;19.90;99.90;;;;;;4848282;29;20073;-80
2023/06/11 04:59:35;;;;;;;11.48;7.95;;;19.90;99.90;;;;;;4843994;29;20049;-81
2023/06/11 05:02:26;;;;;;;11.55;8.00;;;19.90;99.90;;;;;;4797080;29;20068;-79
2023/06/11 05:05:14;;;;;;;11.38;7.53;;;19.90;99.90;;;;;;4826943;29;20435;-82
2023/06/11 05:08:04;;;;;;;13.48;7.50;;;19.90;99.90;;;;;;4823178;29;20057;-82
2023/06/11 05:10:47;;;;;;;10.27;7.18;;;20.10;99.90;;;;;;4828371;29;20117;-76
2023/06/11 05:13:26;;;;;;;10.15;7.07;;;20.10;99.90;;;;;;4820133;29;20080;-78
2023/06/11 05:15:57;;;;;;;12.88;7.40;;;20.20;99.90;;;;;;4817450;29;20107;-76
2023/06/11 05:18:26;;;;;;;10.23;6.93;;;20.20;99.90;;;;;;4812557;29;20080;-81
2023/06/11 05:20:54;;;;;;;11.32;7.57;;;20.20;99.90;;;;;;4830138;29;20050;-75
2023/06/11 05:23:28;;;;;;;11.85;7.72;;;20.10;99.90;;;;;;4831343;29;20046;-81
2023/06/11 05:26:01;;;;;;;16.50;7.97;;;20.10;99.90;;;;;;4805945;29;20054;-84
2023/06/11 05:28:30;;;;;;;13.30;8.05;;;20.10;99.90;;;;;;4816149;29;20090;-83
2023/06/11 05:33:50;;;;;;;14.52;9.18;;;20.20;99.90;;;;;;4960141;23;20048;-83
2023/06/11 05:37:08;;;;;;;16.52;9.25;;;20.20;99.90;;;;;;4854489;29;20081;-86
2023/06/11 05:40:37;;;;;;;16.55;8.85;;;20.10;99.90;;;;;;4887201;29;20049;-77
2023/06/11 05:43:44;;;;;;;12.45;7.85;;;20.10;99.90;;;;;;4862967;29;20092;-75
2023/06/11 05:49:25;;;;;;;12.10;8.27;;;20.30;99.90;;;;;;4524103;27;20505;-77
2023/06/11 05:52:56;;;;;;;12.27;7.78;;;20.50;99.90;;;;;;4827765;29;20049;-80
2023/06/11 05:55:37;;;;;;;10.70;7.85;;;20.50;99.90;;;;;;4849241;29;20117;-79
2023/06/11 05:58:05;;;;;;;12.23;8.18;;;20.30;99.90;;;;;;4877816;29;20435;-81
2023/06/11 06:00:32;;;;;;;12.00;8.35;;;20.40;99.90;;;;;;4849778;29;20049;-80
2023/06/11 06:03:05;;;;;;;12.57;7.55;;;20.40;99.90;;;;;;4860097;29;20038;-80
2023/06/11 06:06:08;;;;;;;12.93;8.25;;;20.40;99.90;;;;;;4869570;29;20124;-78
2023/06/11 06:08:37;;;;;;;11.55;7.57;;;20.50;99.90;;;;;;4866270;29;20041;-80
2023/06/11 06:11:10;;;;;;;15.18;7.68;;;20.60;99.90;;;;;;4867519;29;20121;-79
2023/06/11 06:14:11;;;;;;;10.93;7.65;;;20.60;99.90;;;;;;4867768;29;20525;-78
2023/06/11 06:16:58;;;;;;;13.77;8.27;;;20.50;99.90;;;;;;4851332;29;20125;-81
2023/06/11 06:19:27;;;;;;;13.82;8.15;;;20.60;99.90;;;;;;4863261;29;20042;-82
2023/06/11 06:21:55;;;;;;;13.57;8.05;;;20.70;99.90;;;;;;4876623;29;20049;-82
2023/06/11 06:24:45;;;;;;;13.98;8.13;;;20.80;99.90;;;;;;4879131;29;20037;-78
2023/06/11 06:27:52;;;;;;;12.32;8.18;;;20.60;99.90;;;;;;4852542;29;20113;-75
2023/06/11 06:31:06;;;;;;;13.50;8.82;;;20.20;99.90;;;;;;4845699;29;20046;-79
2023/06/11 06:33:50;;;;;;;;;;;20.50;99.90;;;;;;4841696;29;20546;-83
2023/06/11 06:36:19;;;;;;;14.00;7.38;;;20.60;99.90;;;;;;4862033;29;19960;-80
2023/06/11 06:39:04;;;;;;;11.55;7.90;;;20.80;99.90;;;;;;4876581;29;20054;-81
2023/06/11 06:41:47;;;;;;;12.77;8.38;;;21.10;99.90;;;;;;4875798;29;20082;-79
2023/06/11 06:44:14;;;;;;;13.50;8.23;;;21.20;99.90;;;;;;4877135;29;20109;-83
2023/06/11 06:50:10;;;;;;;11.50;7.90;;;21.30;99.90;;;;;;4894077;27;20048;-80
2023/06/11 06:52:59;;;;;;;11.32;8.20;;;21.00;99.90;;;;;;4885335;23;20064;-76
2023/06/11 06:55:36;;;;;;;11.65;7.70;;;21.30;99.90;;;;;;4873950;29;20505;-77
2023/06/11 06:58:12;;;;;;;12.25;8.15;;;21.10;99.90;;;;;;4878315;29;20062;-83
2023/06/11 07:00:45;;;;;;;12.57;7.78;;;20.90;99.90;;;;;;4854432;29;20042;-78
2023/06/11 07:11:39;;;;;;;10.73;7.35;;;20.90;99.90;;;;;;4793124;29;20058;-81
2023/06/11 07:22:59;;;;;;;11.13;6.30;;;21.40;99.90;;;;;;4916399;23;20041;-77
2023/06/11 07:25:37;;;;;;;11.80;6.57;;;21.40;99.90;;;;;;4895293;29;20032;-83
2023/06/11 07:28:06;;;;;;;13.68;6.63;;;21.70;99.90;;;;;;4892021;29;20067;-83
2023/06/11 07:30:37;;;;;;;11.25;6.30;;;21.70;99.90;;;;;;4899035;29;20093;-79
2023/06/11 07:33:04;;;;;;;9.55;5.97;;;21.80;99.90;;;;;;4893746;29;20047;-82
2023/06/11 07:35:34;;;;;;;10.05;6.18;;;21.80;99.90;;;;;;4896153;29;20096;-81
2023/06/11 07:38:02;;;;;;;8.75;5.82;;;22.00;99.90;;;;;;4893802;29;20033;-81
2023/06/11 07:40:41;;;;;;;10.35;6.70;;;21.90;99.90;;;;;;4896163;29;20044;-80
2023/06/11 07:43:29;;;;;;;9.75;6.55;;;22.10;99.90;;;;;;4910694;29;20167;-81
2023/06/11 07:50:05;;;;;;;;;;;22.20;99.90;;;;;;4816859;29;20054;-83
2023/06/11 07:55:56;;;;;;;10.27;6.78;;;22.60;99.90;;;;;;4897014;29;20048;-82
2023/06/11 07:58:28;;;;;;;9.32;6.38;;;22.70;99.90;;;;;;4905616;29;20096;-81
2023/06/11 08:04:54;;;;;;;8.82;6.30;;;22.60;99.90;;;;;;4871901;29;20074;-78
2023/06/11 08:08:12;;;;;;;11.45;6.30;;;22.00;99.90;;;;;;4889599;29;20061;-79
2023/06/11 08:10:50;;;;;;;10.65;6.85;;;22.00;99.90;;;;;;4878882;29;20073;-85
2023/06/11 08:14:00;;;;;;;9.63;6.45;;;22.30;99.90;;;;;;4897280;23;20061;-82
2023/06/11 08:17:02;;;;;;;11.52;6.53;;;22.80;99.90;;;;;;4824551;29;20050;-75
2023/06/11 08:27:00;;;;;;;13.20;6.00;;;23.70;99.90;;;;;;5180133;23;20080;-77
2023/06/11 08:29:35;;;;;;;10.82;6.78;;;23.60;99.90;;;;;;4964614;23;20065;-82
2023/06/11 08:33:01;;;;;;;;;;;;;;;;;;;;;
2023/06/11 08:36:25;;;;;;;10.02;6.32;;;23.70;99.90;;;;;;4836066;29;20080;-79
2023/06/11 08:39:38;;;;;;;9.13;5.65;;;23.90;99.90;;;;;;4833075;29;20050;-79
2023/06/11 08:42:07;;;;;;;10.20;6.20;;;23.90;99.90;;;;;;4827091;29;20111;-84
2023/06/11 08:44:38;;;;;;;10.10;6.25;;;23.90;99.90;;;;;;4928996;23;20081;-78
2023/06/11 08:50:36;;;;;;;;;;;;;;;;;;;;;
2023/06/11 08:53:28;;;;;;;55.00;41.10;;;24.10;99.90;;;;;;4861435;29;20120;-85
2023/06/11 08:56:17;;;;;;;16.90;12.20;;;24.30;99.90;;;;;;4868362;29;20081;-83
2023/06/11 08:58:53;;;;;;;40.50;25.88;;;24.40;99.90;;;;;;4832968;29;20113;-77
2023/06/11 09:04:29;;;;;;;8.55;6.35;;;24.50;99.90;;;;;;4844657;29;20091;-77
2023/06/11 09:08:49;;;;;;;9.48;6.20;;;24.30;99.90;;;;;;4787708;29;20046;-76
2023/06/11 09:12:34;;;;;;;8.40;5.90;;;24.40;99.90;;;;;;4811038;29;20059;-77
2023/06/11 09:15:55;;;;;;;8.30;5.35;;;24.80;99.90;;;;;;4787060;30;20058;-78
2023/06/11 09:18:49;;;;;;;10.85;5.38;;;24.90;99.60;;;;;;4768047;30;20059;-78
2023/06/11 09:21:18;;;;;;;8.85;5.88;;;24.90;99.20;;;;;;4776982;30;20055;-78
2023/06/11 09:23:49;;;;;;;8.40;6.13;;;25.00;99.80;;;;;;4766729;30;20086;-77
2023/06/11 09:26:57;;;;;;;8.98;5.68;;;25.00;99.70;;;;;;4829082;23;20086;-80
2023/06/11 09:29:43;;;;;;;8.90;6.03;;;25.20;99.80;;;;;;4852862;29;20050;-83
2023/06/11 09:32:44;;;;;;;8.07;5.55;;;25.20;99.10;;;;;;4849854;29;20053;-77
2023/06/11 09:35:32;;;;;;;9.00;5.13;;;25.10;98.30;;;;;;4916894;23;20060;-82
2023/06/11 09:38:00;;;;;;;8.55;5.88;;;24.70;98.20;;;;;;4873454;29;20053;-78
2023/06/11 09:44:38;;;;;;;8.77;5.70;;;25.00;99.80;;;;;;5133023;23;20053;-85
2023/06/11 09:48:38;;;;;;;10.10;5.32;;;25.00;97.80;;;;;;4843759;29;20037;-85
2023/06/11 10:02:53;;;;;;;68.13;16.77;;;25.20;98.80;;;;;;6210502;22;1806749;-82
2023/06/11 10:09:53;;;;;;;11.65;7.93;;;25.80;96.70;;;;;;6226910;22;20024;-81
2023/06/11 10:16:19;;;;;;;20.73;17.35;;;26.10;96.50;;;;;;6107482;23;20038;-79
2023/06/11 10:25:08;;;;;;;7.80;5.78;;;26.30;95.40;;;;;;6149099;23;20033;-80
2023/06/11 10:39:25;;;;;;;10.52;6.88;;;26.90;95.10;;;;;;6214627;22;20406;-78
2023/06/11 10:42:34;;;;;;;36.88;27.77;;;27.00;94.30;;;;;;6237789;23;20071;-76
2023/06/11 10:45:36;;;;;;;35.45;24.83;;;26.70;95.10;;;;;;6240051;23;20055;-79
2023/06/11 10:58:36;;;;;;;13.07;7.65;;;27.80;92.30;;;;;;6229227;22;20020;-81
2023/06/11 11:01:33;;;;;;;9.63;6.43;;;28.00;91.30;;;;;;6232741;23;20047;-77
2023/06/11 11:09:21;;;;;;;8.80;5.85;;;28.20;91.30;;;;;;6099651;23;20002;-76
2023/06/11 11:12:16;;;;;;;8.40;5.93;;;28.20;90.80;;;;;;6089475;23;20015;-81
2023/06/11 11:15:50;;;;;;;8.30;5.40;;;28.20;90.40;;;;;;6098622;23;20108;-82
2023/06/11 11:19:30;;;;;;;51.75;36.17;;;28.30;88.60;;;;;;6116171;23;20007;-79
2023/06/11 11:33:02;;;;;;;9.20;6.70;;;28.20;89.10;;;;;;6262531;22;20066;-81
2023/06/11 11:36:15;;;;;;;22.00;16.52;;;27.90;88.70;;;;;;6241116;23;20076;-83
2023/06/11 11:39:14;;;;;;;17.38;12.77;;;27.80;89.50;;;;;;6264143;23;20024;-83
2023/06/11 11:41:54;;;;;;;13.80;9.50;;;28.00;90.20;;;;;;6234858;23;20075;-76
2023/06/11 11:44:50;;;;;;;8.05;5.53;;;28.20;88.50;;;;;;6207394;23;20016;-78
2023/06/11 11:51:11;;;;;;;41.17;31.02;;;28.30;88.60;;;;;;6263627;23;20080;-77
2023/06/11 11:54:00;;;;;;;25.70;16.77;;;28.70;84.40;;;;;;6233408;23;20079;-75
2023/06/11 11:56:42;;;;;;;20.80;16.08;;;28.60;85.20;;;;;;6233046;23;20028;-80
2023/06/11 11:59:18;;;;;;;19.77;11.90;;;28.50;84.70;;;;;;6228846;23;20020;-79
2023/06/11 12:02:04;;;;;;;31.67;14.80;;;28.40;85.80;;;;;;6233737;23;20042;-77
2023/06/11 12:08:39;;;;;;;11.32;6.20;;;28.70;81.80;;;;;;6220461;23;20043;-80
2023/06/11 12:11:46;;;;;;;7.75;5.32;;;29.00;82.10;;;;;;6213700;23;20465;-78
2023/06/11 12:14:59;;;;;;;9.55;5.40;;;29.00;82.60;;;;;;6239249;23;20032;-78
2023/06/11 12:18:12;;;;;;;20.43;8.67;;;29.00;78.80;;;;;;6261123;23;20065;-78
2023/06/11 12:21:02;;;;;;;19.33;7.80;;;28.80;84.30;;;;;;6231811;23;20249;-82
2023/06/11 12:23:34;;;;;;;12.68;6.90;;;28.70;82.30;;;;;;6210783;23;20558;-77
2023/06/11 12:26:06;;;;;;;12.90;6.03;;;28.50;85.20;;;;;;6262587;23;20012;-79
2023/06/11 12:28:49;;;;;;;7.85;4.55;;;28.20;85.70;;;;;;6232577;23;20039;-80
2023/06/11 12:31:31;;;;;;;9.55;5.35;;;28.00;86.10;;;;;;6238988;23;20036;-80
2023/06/11 12:34:00;;;;;;;9.00;4.63;;;27.80;88.10;;;;;;6260736;23;20042;-80
2023/06/11 12:36:36;;;;;;;8.30;5.10;;;27.40;91.00;;;;;;6239106;23;20386;-80
2023/06/11 12:39:11;;;;;;;13.63;5.32;;;26.90;92.70;;;;;;6236530;23;20035;-82
2023/06/11 12:41:53;;;;;;;12.02;5.90;;;26.50;93.80;;;;;;6254976;23;20084;-81
2023/06/11 12:45:09;;;;;;;11.73;5.82;;;26.10;96.00;;;;;;6253697;23;20020;-76
2023/06/11 12:47:57;;;;;;;8.15;5.47;;;25.30;97.60;;;;;;6203428;23;20026;-77
2023/06/11 12:50:47;;;;;;;8.57;5.50;;;24.80;98.80;;;;;;6222308;22;20352;-78
2023/06/11 12:57:44;;;;;;;9.13;5.40;;;24.30;99.50;;;;;;5927990;23;20653;-77
2023/06/11 13:00:25;;;;;;;9.38;6.40;;;24.50;98.30;;;;;;5077851;23;20082;31
2023/06/11 13:03:20;;;;;;;9.50;5.20;;;24.70;98.20;;;;;;4932761;29;20135;-78
2023/06/11 13:06:36;;;;;;;;;;;;;;;;;;;;;
2023/06/11 13:17:54;;;;;;;8.73;5.20;;;24.90;99.90;;;;;;5051893;23;20065;-78
2023/06/11 13:21:25;;;;;;;7.75;4.80;;;25.00;99.20;;;;;;4987586;28;20046;-78
2023/06/11 13:23:56;;;;;;;9.32;5.13;;;25.20;99.00;;;;;;4984570;28;20070;-79
2023/06/11 13:26:27;;;;;;;7.72;5.47;;;25.30;98.60;;;;;;4991694;28;20034;-79
2023/06/11 13:29:01;;;;;;;9.65;5.55;;;25.40;98.50;;;;;;5015767;28;20046;-79
2023/06/11 13:31:43;;;;;;;9.52;5.82;;;25.40;98.20;;;;;;4991779;28;20065;-79
2023/06/11 13:34:26;;;;;;;13.63;9.02;;;25.30;98.10;;;;;;5017738;28;20043;-78
2023/06/11 13:37:35;;;;;;;10.32;5.47;;;24.90;98.70;;;;;;4992282;28;20086;-79
2023/06/11 13:40:56;;;;;;;7.10;3.97;;;24.70;98.10;;;;;;5029281;28;20485;-80
2023/06/11 13:44:15;;;;;;;9.52;3.83;;;24.80;98.90;;;;;;4992920;28;20051;-80
2023/06/11 13:47:22;;;;;;;5.45;3.28;;;24.60;97.20;;;;;;5005905;28;20039;-80
2023/06/11 13:50:47;;;;;;;5.67;3.40;;;23.10;98.70;;;;;;4998197;28;20043;-77
2023/06/11 14:00:07;;;;;;;5.82;3.55;;;22.50;99.10;;;;;;5140811;23;20144;-78
2023/06/11 14:03:16;;;;;;;5.25;3.35;;;22.50;99.00;;;;;;5035425;28;20048;-78
2023/06/11 14:06:02;;;;;;;6.40;3.53;;;22.80;97.80;;;;;;5063847;28;20108;-76
2023/06/11 14:16:22;;;;;;;7.93;3.75;;;24.00;97.40;;;;;;4891749;29;20063;-79
2023/06/11 14:23:16;;;;;;;7.18;4.25;;;25.00;96.00;;;;;;5183490;23;20061;-79
2023/06/11 14:29:35;;;;;;;9.00;4.40;;;25.40;95.70;;;;;;5028315;28;20053;-78
2023/06/11 14:32:40;;;;;;;6.50;4.07;;;25.10;95.70;;;;;;5034103;28;20064;-78
2023/06/11 14:35:50;;;;;;;7.05;4.13;;;25.20;95.30;;;;;;5062195;28;20044;-78
2023/06/11 14:38:45;;;;;;;11.05;4.43;;;24.60;96.60;;;;;;5041238;28;20042;-76
2023/06/11 14:41:49;;;;;;;;;;;;;;;;;;;;;
2023/06/11 14:45:32;;;;;;;7.40;4.50;;;23.60;98.60;;;;;;4973603;28;20035;-78
2023/06/11 14:48:59;;;;;;;7.05;4.60;;;25.00;97.70;;;;;;4966871;28;20084;-76
2023/06/11 14:52:08;;;;;;;6.57;4.00;;;25.30;96.30;;;;;;4959274;28;20070;-80
2023/06/11 14:54:40;;;;;;;7.32;4.68;;;24.70;97.70;;;;;;5153905;23;20026;-78
2023/06/11 15:05:56;;;;;;;9.50;5.45;;;24.80;99.20;;;;;;4993933;28;20057;-80
2023/06/11 15:08:57;;;;;;;8.27;5.47;;;24.90;99.80;;;;;;5000163;28;20081;-78
2023/06/11 15:19:11;;;;;;;7.93;4.53;;;24.50;96.90;;;;;;2643861;23;20042;-78
2023/06/11 15:21:54;;;;;;;6.43;4.30;;;24.40;97.90;;;;;;5011204;28;20068;-78
2023/06/11 15:30:25;;;;;;;7.95;3.83;;;24.10;99.30;;;;;;5027114;28;20036;-77
2023/06/11 15:34:10;;;;;;;7.25;4.28;;;24.40;99.00;;;;;;4948356;29;20074;-78
2023/06/11 15:36:53;;;;;;;6.18;3.70;;;25.60;97.70;;;;;;4952851;29;20043;-78
2023/06/11 15:40:02;;;;;;;5.75;3.35;;;27.90;93.80;;;;;;4941589;29;20043;-79
2023/06/11 15:45:49;;;;;;;5.50;3.30;;;30.30;86.70;;;;;;5548074;22;20017;31
2023/06/11 15:48:57;;;;;;;4.68;2.72;;;30.30;83.50;;;;;;4922526;29;20054;-78
2023/06/11 15:52:00;;;;;;;5.57;3.22;;;31.00;80.80;;;;;;4907541;29;20039;-76
2023/06/11 15:56:33;;;;;;;5.57;3.42;;;32.10;77.80;;;;;;4909336;29;20044;-78
2023/06/11 15:59:09;;;;;;;5.95;2.80;;;30.70;81.00;;;;;;4868712;29;20052;-77
2023/06/11 16:02:43;;;;;;;;;;;;;;;;;;;;;
2023/06/11 16:06:18;;;;;;;6.20;3.38;;;25.60;91.90;;;;;;4861449;29;20105;-80
2023/06/11 16:15:41;;;;;;;8.20;3.40;;;25.80;93.50;;;;;;4841623;29;20128;-78
2023/06/11 16:18:08;;;;;;;6.43;3.08;;;28.10;91.10;;;;;;4821639;29;20043;-79
2023/06/11 16:21:11;;;;;;;5.78;3.22;;;30.10;87.50;;;;;;4799346;29;20097;-79
2023/06/11 16:23:56;;;;;;;7.53;3.55;;;30.20;88.00;;;;;;4786977;30;20056;-80
2023/06/11 16:27:50;;;;;;;6.18;3.28;;;27.60;92.40;;;;;;4788111;29;20047;-79
2023/06/11 16:33:53;;;;;;;5.85;3.50;;;25.60;95.80;;;;;;4852554;29;20056;-79
2023/06/11 16:41:03;;;;;;;8.98;3.92;;;24.20;99.90;;;;;;4882162;29;20089;-79
2023/06/11 16:44:35;;;;;;;6.05;3.75;;;24.10;99.90;;;;;;4918208;29;20116;-77
2023/06/11 16:47:58;;;;;;;7.07;3.53;;;24.20;99.90;;;;;;4906666;29;20055;-77
2023/06/11 16:51:28;;;;;;;6.30;3.78;;;24.70;99.90;;;;;;4913730;29;20111;-78
2023/06/11 16:57:42;;;;;;;6.93;3.90;;;25.30;99.90;;;;;;4813134;26;20055;-79
2023/06/11 17:00:43;;;;;;;7.03;3.63;;;25.30;99.90;;;;;;4965870;28;20043;-79
2023/06/11 17:17:11;;;;;;;;;;;;;;;;;;;;;
2023/06/11 17:20:58;;;;;;;9.77;4.22;;;23.50;99.90;;;;;;4996414;28;20046;-77
2023/06/11 17:26:27;;;;;;;9.15;4.68;;;23.20;99.90;;;;;;5078230;23;20046;-79
2023/06/11 17:33:31;;;;;;;8.73;4.70;;;23.00;99.90;;;;;;4956055;29;20083;-79
2023/06/11 17:36:19;;;;;;;7.82;4.47;;;22.90;99.90;;;;;;4996575;23;20043;-79
2023/06/11 17:45:40;;;;;;;6.85;4.10;;;22.70;99.90;;;;;;4217450;26;20031;-78
2023/06/11 17:51:48;;;;;;;6.78;4.50;;;22.70;99.90;;;;;;4970073;28;20054;-79
2023/06/11 17:54:38;;;;;;;8.00;4.60;;;22.60;99.90;;;;;;4971808;28;20098;-80
2023/06/11 18:01:24;;;;;;;7.20;4.70;;;22.50;99.90;;;;;;5854650;23;20070;-79
2023/06/11 18:04:46;;;;;;;8.00;4.30;;;22.40;99.90;;;;;;4947396;28;20037;-78
2023/06/11 18:07:31;;;;;;;6.75;4.10;;;22.30;99.90;;;;;;4972946;28;20115;-78
2023/06/11 18:10:40;;;;;;;7.55;4.10;;;22.10;99.90;;;;;;4971786;28;20058;-80
2023/06/11 18:14:28;;;;;;;;;;;;;;;;;;;;;
2023/06/11 18:18:43;;;;;;;6.05;4.10;;;22.10;99.90;;;;;;4877973;29;20063;-77
2023/06/11 18:22:23;;;;;;;;;;;;;;;;;;;;;
2023/06/11 18:25:33;;;;;;;6.32;4.13;;;22.10;99.90;;;;;;4865830;29;20077;-77
2023/06/11 18:28:03;;;;;;;6.60;4.28;;;22.00;99.90;;;;;;4883430;29;20069;-78
2023/06/11 18:31:28;;;;;;;5.80;3.97;;;22.00;99.90;;;;;;4877450;29;20044;-78
2023/06/11 18:35:21;;;;;;;5.97;3.85;;;22.00;99.90;;;;;;4884790;29;20072;-78
2023/06/11 18:37:46;;;;;;;5.20;3.40;;;22.10;99.90;;;;;;4871746;29;20088;-81
2023/06/11 18:41:09;;;;;;;6.78;3.45;;;21.80;99.90;;;;;;4891304;29;20057;-77
2023/06/11 18:44:00;;;;;;;5.88;4.13;;;21.50;99.90;;;;;;4885160;29;20048;-81
2023/06/11 18:47:25;;;;;;;5.50;3.30;;;21.60;99.90;;;;;;4876661;29;20052;-79
2023/06/11 18:56:25;;;;;;;5.32;3.47;;;21.50;99.90;;;;;;3034491;23;20058;-78
2023/06/11 18:59:09;;;;;;;6.88;3.88;;;21.60;99.90;;;;;;4953628;29;20043;-80
2023/06/11 19:01:44;;;;;;;7.90;3.72;;;21.40;99.90;;;;;;4972319;29;20110;-81
2023/06/11 19:17:03;;;;;;;6.00;3.70;;;21.30;99.90;;;;;;4881873;29;20050;-79
2023/06/11 19:19:37;;;;;;;6.20;3.70;;;21.30;99.90;;;;;;4885198;29;20057;-77
2023/06/11 19:23:05;;;;;;;6.03;3.78;;;21.40;99.90;;;;;;4891670;29;20049;-78
2023/06/11 19:33:07;;;;;;;17.65;11.68;;;21.10;99.90;;;;;;3217502;26;20043;-78
2023/06/11 19:35:56;;;;;;;18.65;13.18;;;21.20;99.90;;;;;;4967301;28;20055;-78